M I D A S
Marine Information and Data Acquisition System
Tripno 1242 of the Zeeleeuw from 2007-03-29 05:00:32 to 2007-03-29 07:51:53
Back to CruiseResearch ActivitiesStationsMapUnderway DataData graphs

EquipmentUnitsComment
TimeDGPSUTC
LatitudeDGPSDM.mWGS84
LongitudeDGPSDM.mWGS84
HeadingGyrodeg 
SOGDGPSknotsSpeed over ground
COGDGPSdegCourse over ground
DepthEcho soundermeters200 kHz
Missing or incorrect values are displayed as -999
Navigation data collected by the RV Zeeleeuw from 2007-03-29 05:01:44 to 2007-03-29 07:56:21
Time Latitude Longitude Heading SOG COG Depth
2007-03-29 05:02:49 51°13.614 2°56.049 115.8 3.3 294 -999
2007-03-29 05:03:49 51°13.64 2°55.953 122 4.6 297 -999
2007-03-29 05:04:49 51°13.682 2°55.849 128.4 4.4 305 -999
2007-03-29 05:05:49 51°13.721 2°55.759 124.7 3.3 303 11.9
2007-03-29 05:06:49 51°13.732 2°55.733 97.5 0.3 345 11.2
2007-03-29 05:07:49 51°13.733 2°55.712 71.1 0.8 267 -999
2007-03-29 05:08:49 51°13.735 2°55.71 37 0.8 223 10.9
2007-03-29 05:09:49 51°13.732 2°55.702 2.9 0.6 356 -999
2007-03-29 05:10:49 51°13.767 2°55.681 342.4 4.5 337 10.4
2007-03-29 05:11:49 51°13.863 2°55.617 342.5 7.1 338 10.3
2007-03-29 05:12:49 51°13.979 2°55.544 343.4 7.7 339 10.5
2007-03-29 05:13:49 51°14.097 2°55.465 341.1 7.7 336 10.6
2007-03-29 05:14:49 51°14.214 2°55.359 329.4 8.8 322 10.5
2007-03-29 05:15:49 51°14.321 2°55.17 311.3 10.5 306 10.2
2007-03-29 05:16:50 51°14.429 2°54.899 301.2 12.9 295 10.1
2007-03-29 05:17:50 51°14.546 2°54.609 322.8 12.9 322 9.9
2007-03-29 05:18:49 51°14.728 2°54.44 338.9 12.9 332 9
2007-03-29 05:19:49 51°14.912 2°54.276 327.2 12.8 312 8.4
2007-03-29 05:20:50 51°15.025 2°53.975 305.9 13.3 298 8.6
2007-03-29 05:21:49 51°15.121 2°53.661 301 13.6 291 8.7
2007-03-29 05:22:49 51°15.187 2°53.315 293.2 13.7 285 9.2
2007-03-29 05:23:49 51°15.237 2°52.959 290.2 13.8 283 9.7
2007-03-29 05:24:49 51°15.283 2°52.601 289.5 13.8 282 10.2
2007-03-29 05:25:49 51°15.328 2°52.244 289.6 13.7 282 10.8
2007-03-29 05:26:49 51°15.375 2°51.889 289.7 13.7 282 11.4
2007-03-29 05:27:49 51°15.421 2°51.535 289.5 13.6 283 11.7
2007-03-29 05:28:49 51°15.469 2°51.184 290 13.5 282 11.9
2007-03-29 05:29:49 51°15.518 2°50.836 290.7 13.4 283 11.9
2007-03-29 05:30:49 51°15.566 2°50.487 290.1 13.4 283 12.1
2007-03-29 05:31:49 51°15.614 2°50.139 289.9 13.5 283 12.2
2007-03-29 05:32:49 51°15.661 2°49.79 290.2 13.5 283 12.3
2007-03-29 05:33:49 51°15.711 2°49.443 290.6 13.3 283 10.8
2007-03-29 05:34:49 51°15.759 2°49.099 290.3 13.3 282 10
2007-03-29 05:35:49 51°15.806 2°48.751 290.6 13.5 282 10.9
2007-03-29 05:36:49 51°15.854 2°48.399 290.7 13.6 283 12.3
2007-03-29 05:37:49 51°15.903 2°48.045 290.1 13.7 282 14.1
2007-03-29 05:38:49 51°15.951 2°47.69 290.5 13.7 282 15.4
2007-03-29 05:39:49 51°16.002 2°47.335 290.3 13.7 283 15.9
2007-03-29 05:40:49 51°16.055 2°46.983 289.9 13.6 284 15.1
2007-03-29 05:41:49 51°16.102 2°46.637 290.3 13.2 283 13.5
2007-03-29 05:42:49 51°16.151 2°46.297 290.2 13 283 10.2
2007-03-29 05:43:49 51°16.198 2°45.958 290 13.1 282 10.5
2007-03-29 05:44:49 51°16.271 2°45.638 306.3 12.8 298 10.1
2007-03-29 05:45:49 51°16.372 2°45.336 307.6 12.9 298 10.6
2007-03-29 05:46:49 51°16.482 2°45.04 312.7 12.9 303 11.2
2007-03-29 05:47:49 51°16.6 2°44.753 312.3 13 303 11.1
2007-03-29 05:48:49 51°16.717 2°44.458 312 13.2 302 13.4
2007-03-29 05:49:49 51°16.833 2°44.16 312 13.2 302 14.9
2007-03-29 05:50:49 51°16.948 2°43.862 310.7 13.3 301 14.8
2007-03-29 05:51:49 51°17.066 2°43.564 311.6 13.3 302 14.4
2007-03-29 05:52:49 51°17.185 2°43.268 311.6 13.1 303 10.9
2007-03-29 05:53:49 51°17.305 2°42.975 311.5 13.1 303 10
2007-03-29 05:54:49 51°17.426 2°42.683 311.3 13.4 303 13
2007-03-29 05:55:49 51°17.549 2°42.384 310.9 13.4 303 22.7
2007-03-29 05:56:49 51°17.67 2°42.088 311 13.2 303 23.8
2007-03-29 05:57:49 51°17.786 2°41.789 309.7 13.3 301 23.8
2007-03-29 05:58:49 51°17.903 2°41.49 311.4 13.1 302 23.3
2007-03-29 05:59:49 51°18.019 2°41.199 311.5 13.1 303 20.5
2007-03-29 06:00:49 51°18.138 2°40.908 311.8 13.1 303 15.9
2007-03-29 06:01:49 51°18.26 2°40.616 311.3 13.3 303 18.9
2007-03-29 06:02:49 51°18.381 2°40.321 311.3 13.1 304 10.4
2007-03-29 06:03:49 51°18.504 2°40.029 310.8 13.2 304 24.8
2007-03-29 06:04:49 51°18.626 2°39.738 310.9 13.2 303 24.9
2007-03-29 06:05:49 51°18.747 2°39.446 311.3 13.2 304 25
2007-03-29 06:06:49 51°18.866 2°39.152 310.5 13 302 26
2007-03-29 06:07:49 51°18.981 2°38.859 311.6 13.1 302 26.2
2007-03-29 06:08:49 51°19.097 2°38.566 311.9 13 302 27.8
2007-03-29 06:09:49 51°19.219 2°38.282 313.6 12.9 305 25.1
2007-03-29 06:10:49 51°19.346 2°38.002 315.4 13 307 22.4
2007-03-29 06:11:49 51°19.477 2°37.728 314.6 13 307 21.4
2007-03-29 06:12:49 51°19.607 2°37.451 315.6 13.1 307 22.3
2007-03-29 06:13:49 51°19.741 2°37.178 318 12.8 309 20.6
2007-03-29 06:14:49 51°19.84 2°36.987 321.5 6.6 319 21.2
2007-03-29 06:15:49 51°19.904 2°36.931 347.4 3.2 333 21.1
2007-03-29 06:16:49 51°19.937 2°36.896 339.1 1.9 320 21.9
2007-03-29 06:17:49 51°19.954 2°36.869 337.6 1.2 312 21.9
2007-03-29 06:18:49 51°19.964 2°36.85 336.6 0.8 299 21.4
2007-03-29 06:19:49 51°19.968 2°36.836 335.7 0.5 281 20.6
2007-03-29 06:20:49 51°19.967 2°36.826 336 0.3 238 20.9
2007-03-29 06:21:49 51°19.964 2°36.819 336.6 0.3 220 21.5
2007-03-29 06:22:49 51°19.958 2°36.817 341.6 0.3 171 21.6
2007-03-29 06:23:49 51°19.951 2°36.818 351.2 0.5 171 22.1
2007-03-29 06:24:49 51°19.943 2°36.82 359.9 0.6 164 21.8
2007-03-29 06:25:49 51°19.933 2°36.824 9.9 0.7 166 22.1
2007-03-29 06:26:49 51°19.923 2°36.827 16.2 0.6 169 22
2007-03-29 06:27:49 51°19.913 2°36.83 17.9 0.6 168 21.8
2007-03-29 06:28:49 51°19.902 2°36.832 17.4 0.6 169 21.9
2007-03-29 06:29:49 51°19.913 2°36.836 5.8 2 357 21.9
2007-03-29 06:30:49 51°19.986 2°36.827 4.2 4.2 358 21
2007-03-29 06:31:49 51°20.038 2°36.819 356.9 2.4 348 22.1
2007-03-29 06:32:50 51°20.069 2°36.804 350.3 1.6 338 22.3
2007-03-29 06:33:49 51°20.087 2°36.791 348.1 0.9 331 23.1
2007-03-29 06:34:49 51°20.099 2°36.781 346.2 0.6 324 22.5
2007-03-29 06:35:49 51°20.103 2°36.773 340 0.2 298 21.9
2007-03-29 06:36:49 51°20.103 2°36.769 337.7 0.1 164 21.8
2007-03-29 06:37:49 51°20.099 2°36.769 337.3 0.3 182 21.8
2007-03-29 06:38:49 51°20.094 2°36.77 339.5 0.4 165 22
2007-03-29 06:39:50 51°20.087 2°36.774 344 0.4 153 22.1
2007-03-29 06:40:50 51°20.079 2°36.78 352.8 0.6 159 22.2
2007-03-29 06:41:50 51°20.085 2°36.777 337.9 1.6 323 22.2
2007-03-29 06:42:50 51°20.095 2°36.707 273.2 3.6 256 23
2007-03-29 06:43:50 51°20.043 2°36.65 189.7 4.3 180 22.8
2007-03-29 06:44:50 51°19.974 2°36.725 132.7 7.7 135 21.5
2007-03-29 06:45:50 51°19.853 2°36.949 129 13.1 126 22.5
2007-03-29 06:46:50 51°19.735 2°37.255 120.7 13.6 119 22.8
2007-03-29 06:47:50 51°19.616 2°37.565 121.2 13.7 122 22.6
2007-03-29 06:48:50 51°19.495 2°37.876 121.6 13.8 123 21.4
2007-03-29 06:49:50 51°19.372 2°38.183 121.2 13.7 122 22.5
2007-03-29 06:50:50 51°19.252 2°38.491 121.2 13.6 124 26.6
2007-03-29 06:51:50 51°19.12 2°38.788 126.3 13.8 130 28.7
2007-03-29 06:52:50 51°18.981 2°39.077 126 13.7 127 28.1
2007-03-29 06:53:50 51°18.845 2°39.372 125.5 13.7 126 26
2007-03-29 06:54:50 51°18.716 2°39.672 126.6 13.7 124 25.3
2007-03-29 06:55:50 51°18.588 2°39.97 126.1 13.8 124 25.5
2007-03-29 06:56:50 51°18.457 2°40.27 125.7 13.8 123 19.8
2007-03-29 06:57:50 51°18.331 2°40.575 124.3 13.8 121 19.6
2007-03-29 06:58:50 51°18.21 2°40.882 124.1 13.7 123 15.9
2007-03-29 06:59:50 51°18.081 2°41.187 124.6 13.8 123 21
2007-03-29 07:00:50 51°17.955 2°41.491 124.4 13.8 122 23.7
2007-03-29 07:01:50 51°17.828 2°41.8 124.9 14 123 24.8
2007-03-29 07:02:50 51°17.698 2°42.104 124.3 13.9 124 24.9
2007-03-29 07:03:50 51°17.567 2°42.408 124.4 13.8 123 23.8
2007-03-29 07:04:50 51°17.443 2°42.716 125.2 13.7 122 15.2
2007-03-29 07:05:50 51°17.32 2°43.025 123.9 13.9 124 11.4
2007-03-29 07:06:50 51°17.196 2°43.335 124.8 13.7 123 13
2007-03-29 07:07:50 51°17.073 2°43.641 124.3 13.5 123 15.7
2007-03-29 07:08:50 51°16.949 2°43.943 124.6 13.6 123 16.1
2007-03-29 07:09:50 51°16.824 2°44.249 123.3 13.8 123 16.2
2007-03-29 07:10:50 51°16.695 2°44.553 124.2 13.6 124 14
2007-03-29 07:11:50 51°16.568 2°44.856 123.7 13.7 124 12.4
2007-03-29 07:12:50 51°16.458 2°45.174 119.4 13.8 116 12.4
2007-03-29 07:13:50 51°16.351 2°45.496 119.3 13.8 117 11.6
2007-03-29 07:14:50 51°16.243 2°45.82 118.9 13.9 116 11.1
2007-03-29 07:15:50 51°16.151 2°46.16 112.1 13.8 112 12.1
2007-03-29 07:16:50 51°16.126 2°46.52 93.5 13.8 90 13.7
2007-03-29 07:17:50 51°16.107 2°46.888 98.7 13.7 99 14.6
2007-03-29 07:18:50 51°16.064 2°47.246 103.2 13.8 101 16.9
2007-03-29 07:19:50 51°16.017 2°47.607 104.3 13.9 100 16.9
2007-03-29 07:20:50 51°15.971 2°47.964 104.5 13.8 103 16.2
2007-03-29 07:21:50 51°15.917 2°48.32 105.8 13.9 104 15.3
2007-03-29 07:22:50 51°15.863 2°48.68 105.3 13.9 104 13.1
2007-03-29 07:23:50 51°15.811 2°49.036 104.6 13.9 102 12
2007-03-29 07:24:50 51°15.759 2°49.392 105.3 13.7 104 11.7
2007-03-29 07:25:50 51°15.707 2°49.751 105.1 13.9 102 13.3
2007-03-29 07:26:50 51°15.655 2°50.112 105.3 14 102 14.1
2007-03-29 07:27:50 51°15.607 2°50.475 105.3 13.8 102 13.7
2007-03-29 07:28:50 51°15.543 2°50.829 108.2 13.9 105 13.5
2007-03-29 07:29:50 51°15.482 2°51.18 110.7 13.9 107 13.5
2007-03-29 07:30:50 51°15.394 2°51.516 119.5 13.6 115 13.4
2007-03-29 07:31:50 51°15.3 2°51.843 117.6 13.5 114 13.1
2007-03-29 07:32:50 51°15.208 2°52.173 117.5 13.5 115 12.5
2007-03-29 07:33:50 51°15.115 2°52.502 118.2 13.6 115 12.1
2007-03-29 07:34:50 51°15.022 2°52.833 117.6 13.6 115 12.5
2007-03-29 07:35:50 51°14.93 2°53.163 117.1 13.2 114 12.2
2007-03-29 07:36:50 51°14.84 2°53.486 118.2 13.6 114 11.8
2007-03-29 07:37:50 51°14.752 2°53.819 115.2 13.6 111 11.7
2007-03-29 07:38:50 51°14.68 2°54.161 116.8 13.6 115 11.6
2007-03-29 07:39:50 51°14.58 2°54.482 122.9 13.6 117 11.5
2007-03-29 07:40:50 51°14.474 2°54.799 124.8 13.6 120 12.3
2007-03-29 07:41:50 51°14.351 2°55.101 129.1 13.4 129 11.8
2007-03-29 07:42:50 51°14.211 2°55.34 141.3 10.8 142 12.6
2007-03-29 07:43:50 51°14.076 2°55.456 157.6 8.5 156 12.5
2007-03-29 07:44:50 51°13.952 2°55.544 158.9 8 156 12.5
2007-03-29 07:45:50 51°13.832 2°55.631 157.9 7.7 154 12.5
2007-03-29 07:46:50 51°13.736 2°55.74 139.3 6.1 135 12.9
2007-03-29 07:47:50 51°13.679 2°55.849 131.2 4.9 127 11.6
2007-03-29 07:48:50 51°13.635 2°55.947 127 4 123 11.8
2007-03-29 07:49:50 51°13.609 2°56.032 112.5 3.1 107 12.3
2007-03-29 07:50:50 51°13.602 2°56.087 105.1 1.1 99 7.7
2007-03-29 07:51:50 51°13.6 2°56.096 110.3 0.3 139 6.7
2007-03-29 07:52:50 51°13.6 2°56.1 107.6 0.1 11 6.5
2007-03-29 07:53:51 51°13.601 2°56.1 121.3 0.1 10 -999
2007-03-29 07:54:51 51°13.601 2°56.1 128.4 0.1 265 -999
2007-03-29 07:55:51 51°13.601 2°56.1 128.4 -999 174 -999